createdAt,value
2016-09-28T00:00:32.734Z,97.31
2016-09-28T00:01:32.388Z,97.65
2016-09-28T00:02:32.657Z,97.41
2016-09-28T00:03:32.620Z,97.41
2016-09-28T00:04:32.582Z,97.51
2016-09-28T00:05:32.549Z,97.56
2016-09-28T00:06:32.513Z,97.6
2016-09-28T00:07:32.476Z,97.6
2016-09-28T00:08:32.138Z,97.36
2016-09-28T00:09:32.102Z,97.51
2016-09-28T00:10:32.368Z,97.6
2016-09-28T00:11:32.334Z,97.65
2016-09-28T00:12:32.304Z,97.41
2016-09-28T00:13:31.960Z,97.99
2016-09-28T00:14:32.227Z,97.41
2016-09-28T00:15:32.189Z,97.7
2016-09-28T00:16:31.850Z,97.99
2016-09-28T00:17:32.121Z,98.08
2016-09-28T00:18:32.083Z,98.08
2016-09-28T00:19:31.742Z,98.08
2016-09-28T00:20:32.012Z,98.18
2016-09-28T00:21:31.978Z,97.7
2016-09-28T00:22:31.938Z,97.99
2016-09-28T00:23:31.903Z,97.89
2016-09-28T00:24:31.564Z,98.08
2016-09-28T00:25:31.828Z,98.08
2016-09-28T00:26:31.795Z,98.08
2016-09-28T00:27:31.459Z,98.08
2016-09-28T00:28:31.721Z,98.27
2016-09-28T00:29:31.700Z,98.18
2016-09-28T00:30:31.350Z,98.08
2016-09-28T00:31:31.614Z,98.27
2016-09-28T00:32:31.575Z,98.08
2016-09-28T00:33:31.238Z,98.08
2016-09-28T00:34:31.509Z,98.27
2016-09-28T00:35:31.474Z,97.99
2016-09-28T00:36:31.435Z,98.18
2016-09-28T00:37:31.398Z,98.08
2016-09-28T00:38:31.361Z,98.18
2016-09-28T00:39:31.328Z,98.08
2016-09-28T00:40:31.300Z,98.27
2016-09-28T00:41:31.256Z,97.99
2016-09-28T00:42:31.221Z,98.08
2016-09-28T00:43:31.185Z,98.46
2016-09-28T00:44:30.845Z,98.08
2016-09-28T00:45:30.812Z,98.08
2016-09-28T00:46:31.075Z,98.08
2016-09-28T00:47:30.742Z,97.99
2016-09-28T00:48:31.002Z,97.7
2016-09-28T00:49:30.662Z,97.99
2016-09-28T00:50:30.929Z,98.18
2016-09-28T00:51:30.895Z,98.08
2016-09-28T00:52:30.857Z,98.27
2016-09-28T00:53:30.822Z,98.27
2016-09-28T00:54:30.792Z,98.18
2016-09-28T00:55:30.752Z,98.08
2016-09-28T00:56:30.715Z,98.65
2016-09-28T00:57:30.677Z,98.46
2016-09-28T00:58:30.656Z,98.65
2016-09-28T00:59:30.604Z,98.55
2016-09-28T01:00:30.570Z,99.03
2016-09-28T01:01:30.534Z,98.74
2016-09-28T01:02:30.497Z,98.94
2016-09-28T01:03:30.158Z,98.65
2016-09-28T01:04:30.426Z,98.46
2016-09-28T01:05:30.391Z,98.94
2016-09-28T01:06:30.354Z,98.84
2016-09-28T01:07:30.317Z,98.94
2016-09-28T01:08:30.280Z,99.13
2016-09-28T01:09:30.245Z,99.13
2016-09-28T01:10:30.203Z,98.74
2016-09-28T01:11:30.172Z,98.94
2016-09-28T01:12:30.135Z,99.32
2016-09-28T01:13:30.097Z,99.13
2016-09-28T01:14:30.061Z,99.03
2016-09-28T01:15:30.024Z,98.94
2016-09-28T01:16:29.713Z,98.84
2016-09-28T01:17:29.650Z,99.03
2016-09-28T01:18:29.917Z,98.65
2016-09-28T01:19:29.879Z,98.94
2016-09-28T01:20:29.846Z,99.03
2016-09-28T01:21:29.809Z,99.13
2016-09-28T01:22:29.476Z,99.03
2016-09-28T01:23:29.736Z,98.94
2016-09-28T01:24:29.699Z,99.13
2016-09-28T01:25:29.667Z,99.03
2016-09-28T01:26:29.324Z,98.65
2016-09-28T01:27:29.591Z,98.84
2016-09-28T01:28:29.554Z,99.13
2016-09-28T01:29:29.518Z,99.03
2016-09-28T01:30:29.486Z,99.03
2016-09-28T01:31:29.444Z,99.13
2016-09-28T01:32:29.410Z,98.98
2016-09-28T01:33:29.375Z,98.84
2016-09-28T01:34:29.336Z,98.94
2016-09-28T01:35:29.299Z,99.13
2016-09-28T01:36:29.269Z,98.94
2016-09-28T01:37:29.228Z,98.94
2016-09-28T01:38:28.891Z,99.03
2016-09-28T01:39:29.158Z,98.79
2016-09-28T01:40:29.120Z,99.03
2016-09-28T01:41:29.084Z,98.88
2016-09-28T01:42:28.743Z,99.08
2016-09-28T01:43:29.017Z,98.79
2016-09-28T01:44:28.975Z,98.98
2016-09-28T01:45:28.934Z,98.79
2016-09-28T01:46:28.901Z,99.17
2016-09-28T01:47:28.564Z,99.17
2016-09-28T01:48:28.833Z,99.17
2016-09-28T01:49:28.790Z,98.88
2016-09-28T01:50:28.453Z,98.98
2016-09-28T01:51:28.721Z,98.98
2016-09-28T01:52:28.686Z,99.17
2016-09-28T01:53:28.647Z,99.08
2016-09-28T01:54:28.613Z,98.88
2016-09-28T01:55:28.573Z,99.17
2016-09-28T01:56:28.539Z,98.98
2016-09-28T01:57:28.511Z,98.79
2016-09-28T01:58:28.472Z,98.79
2016-09-28T01:59:28.430Z,98.79
2016-09-28T02:00:28.395Z,98.88
2016-09-28T02:01:28.055Z,98.69
2016-09-28T02:02:28.319Z,98.79
2016-09-28T02:03:27.980Z,98.69
2016-09-28T02:04:28.248Z,98.79
2016-09-28T02:05:28.208Z,99.27
2016-09-28T02:06:27.873Z,99.17
2016-09-28T02:07:28.139Z,99.17
2016-09-28T02:08:28.099Z,99.08
2016-09-28T02:09:28.064Z,98.79
2016-09-28T02:10:28.035Z,98.88
2016-09-28T02:11:27.994Z,98.98
2016-09-28T02:12:27.953Z,98.88
2016-09-28T02:13:27.926Z,98.88
2016-09-28T02:14:27.882Z,98.98
2016-09-28T02:15:27.544Z,99.17
2016-09-28T02:16:27.807Z,98.79
2016-09-28T02:17:27.775Z,98.88
2016-09-28T02:18:27.739Z,98.88
2016-09-28T02:19:27.702Z,98.6
2016-09-28T02:20:27.663Z,98.79
2016-09-28T02:21:27.325Z,98.79
2016-09-28T02:22:27.591Z,98.79
2016-09-28T02:23:27.554Z,99.08
2016-09-28T02:24:27.517Z,99.17
2016-09-28T02:25:27.481Z,98.98
2016-09-28T02:26:27.444Z,98.98
2016-09-28T02:27:27.412Z,99.08
2016-09-28T02:28:27.373Z,98.88
2016-09-28T02:29:27.034Z,98.6
2016-09-28T02:30:26.999Z,98.88
2016-09-28T02:31:27.263Z,99.08
2016-09-28T02:32:27.232Z,99.08
2016-09-28T02:33:27.193Z,99.08
2016-09-28T02:34:27.153Z,99.17
2016-09-28T02:35:27.118Z,99.17
2016-09-28T02:36:27.083Z,98.79
2016-09-28T02:37:27.041Z,98.79
2016-09-28T02:38:27.011Z,98.98
2016-09-28T02:39:26.971Z,99.08
2016-09-28T02:40:26.933Z,99.08
2016-09-28T02:41:26.899Z,99.27
2016-09-28T02:42:26.561Z,99.36
2016-09-28T02:43:26.827Z,98.88
2016-09-28T02:44:26.790Z,98.79
2016-09-28T02:45:26.450Z,98.98
2016-09-28T02:46:26.720Z,99.08
2016-09-28T02:47:26.684Z,98.98
2016-09-28T02:48:26.643Z,98.98
2016-09-28T02:49:26.608Z,99.27
2016-09-28T02:50:26.579Z,99.08
2016-09-28T02:51:26.537Z,99.27
2016-09-28T02:52:26.501Z,99.46
2016-09-28T02:53:26.461Z,99.08
2016-09-28T02:54:26.453Z,99.08
2016-09-28T02:55:26.392Z,99.84
2016-09-28T02:56:26.357Z,99.84
2016-09-28T02:57:26.317Z,99.08
2016-09-28T02:58:25.980Z,98.98
2016-09-28T02:59:26.239Z,99.27
2016-09-28T03:00:25.906Z,98.98
2016-09-28T03:01:26.170Z,99.22
2016-09-28T03:02:25.834Z,99.17
2016-09-28T03:03:26.099Z,99.22
2016-09-28T03:04:26.057Z,99.31
2016-09-28T03:05:26.021Z,99.22
2016-09-28T03:06:25.990Z,99.36
2016-09-28T03:07:25.648Z,99.12
2016-09-28T03:08:25.624Z,99.12
2016-09-28T03:09:25.576Z,98.93
2016-09-28T03:10:25.840Z,99.12
2016-09-28T03:11:25.499Z,99.22
2016-09-28T03:12:25.476Z,99.84
2016-09-28T03:13:25.735Z,99.6
2016-09-28T03:14:25.693Z,99.12
2016-09-28T03:15:25.349Z,99.69
2016-09-28T03:16:25.323Z,99.36
2016-09-28T03:17:25.585Z,99.6
2016-09-28T03:18:25.552Z,99.6
2016-09-28T03:19:25.213Z,99.46
2016-09-28T03:20:25.184Z,99.17
2016-09-28T03:21:25.449Z,99.55
2016-09-28T03:22:25.403Z,99.17
2016-09-28T03:23:25.367Z,99.55
2016-09-28T03:24:25.026Z,99.74
2016-09-28T03:25:25.295Z,99.65
2016-09-28T03:26:24.955Z,99.99
2016-09-28T03:27:24.917Z,99.65
2016-09-28T03:28:24.879Z,99.99
2016-09-28T03:29:25.150Z,99.99
2016-09-28T03:30:25.108Z,99.93
2016-09-28T03:31:25.079Z,99.69
2016-09-28T03:32:24.735Z,99.79
2016-09-28T03:33:24.705Z,99.69
2016-09-28T03:34:24.966Z,99.89
2016-09-28T03:35:24.926Z,99.89
2016-09-28T03:36:24.591Z,99.69
2016-09-28T03:37:24.854Z,99.89
2016-09-28T03:38:24.515Z,99.99
2016-09-28T03:39:24.782Z,99.99
2016-09-28T03:40:24.746Z,99.89
2016-09-28T03:41:24.710Z,99.69
2016-09-28T03:42:24.674Z,99.75
2016-09-28T03:43:24.637Z,99.65
2016-09-28T03:44:24.601Z,99.65
2016-09-28T03:45:24.568Z,99.08
2016-09-28T03:46:24.528Z,99.84
2016-09-28T03:47:24.490Z,99.84
2016-09-28T03:48:24.457Z,99.75
2016-09-28T03:49:24.421Z,99.75
2016-09-28T03:50:24.386Z,99.37
2016-09-28T03:51:24.045Z,99.08
2016-09-28T03:52:24.022Z,99.46
2016-09-28T03:53:24.276Z,99.08
2016-09-28T03:54:23.936Z,99.08
2016-09-28T03:55:24.215Z,98.89
2016-09-28T03:56:24.168Z,98.99
2016-09-28T03:57:24.134Z,98.7
2016-09-28T03:58:24.094Z,98.41
2016-09-28T03:59:24.065Z,98.51
2016-09-28T04:00:24.022Z,98.03
2016-09-28T04:01:23.991Z,98.18
2016-09-28T04:02:23.953Z,97.8
2016-09-28T04:03:23.920Z,98.08
2016-09-28T04:04:23.882Z,98.36
2016-09-28T04:05:23.845Z,97.51
2016-09-28T04:06:23.809Z,97.7
2016-09-28T04:07:23.487Z,97.13
2016-09-28T04:08:23.740Z,97.61
2016-09-28T04:09:23.400Z,97.22
2016-09-28T04:10:23.668Z,97.03
2016-09-28T04:11:23.634Z,96.65
2016-09-28T04:12:23.598Z,97.22
2016-09-28T04:13:23.561Z,96.65
2016-09-28T04:14:23.526Z,97.03
2016-09-28T04:15:23.490Z,97.03
2016-09-28T04:16:23.453Z,96.65
2016-09-28T04:17:23.418Z,96.27
2016-09-28T04:18:23.387Z,96.61
2016-09-28T04:19:23.047Z,96.32
2016-09-28T04:20:23.017Z,96.36
2016-09-28T04:21:23.289Z,96.22
2016-09-28T04:22:23.241Z,96.22
2016-09-28T04:23:22.907Z,96.61
2016-09-28T04:24:23.169Z,96.03
2016-09-28T04:25:23.145Z,95.75
2016-09-28T04:26:23.101Z,96.03
2016-09-28T04:27:23.061Z,95.84
2016-09-28T04:28:23.032Z,95.84
2016-09-28T04:29:22.993Z,95.84
2016-09-28T04:30:22.656Z,95.37
2016-09-28T04:31:22.923Z,95.37
2016-09-28T04:32:22.887Z,95.56
2016-09-28T04:33:22.849Z,95.65
2016-09-28T04:34:22.817Z,95.08
2016-09-28T04:35:22.784Z,95.27
2016-09-28T04:36:22.445Z,95.17
2016-09-28T04:37:22.710Z,95.37
2016-09-28T04:38:22.677Z,95.27
2016-09-28T04:39:22.648Z,95.08
2016-09-28T04:40:22.305Z,94.98
2016-09-28T04:41:22.572Z,94.89
2016-09-28T04:42:22.537Z,94.51
2016-09-28T04:43:22.503Z,94.6
2016-09-28T04:44:22.465Z,94.89
2016-09-28T04:45:22.432Z,94.89
2016-09-28T04:46:22.394Z,94.32
2016-09-28T04:47:22.359Z,94.32
2016-09-28T04:48:22.326Z,94.51
2016-09-28T04:49:22.293Z,93.74
2016-09-28T04:50:21.953Z,94.22
2016-09-28T04:51:22.219Z,93.84
2016-09-28T04:52:22.195Z,94.32
2016-09-28T04:53:22.150Z,93.84
2016-09-28T04:54:22.114Z,93.74
2016-09-28T04:55:22.078Z,93.46
2016-09-28T04:56:21.742Z,92.98
2016-09-28T04:57:22.016Z,93.27
2016-09-28T04:58:21.977Z,92.79
2016-09-28T04:59:21.938Z,92.98
2016-09-28T05:00:21.905Z,93.08
2016-09-28T05:01:21.567Z,93.55
2016-09-28T05:02:21.834Z,92.69
2016-09-28T05:03:21.800Z,92.5
2016-09-28T05:04:21.761Z,92.69
2016-09-28T05:05:21.425Z,92.36
2016-09-28T05:06:21.391Z,92.22
2016-09-28T05:07:21.658Z,92.41
2016-09-28T05:08:21.622Z,92.03
2016-09-28T05:09:21.595Z,92.79
2016-09-28T05:10:21.553Z,92.69
2016-09-28T05:11:21.213Z,92.5
2016-09-28T05:12:21.481Z,92.88
2016-09-28T05:13:21.147Z,93.6
2016-09-28T05:14:21.113Z,93.36
2016-09-28T05:15:21.382Z,93.17
2016-09-28T05:16:21.352Z,93.41
2016-09-28T05:17:21.002Z,93.41
2016-09-28T05:18:21.270Z,93.12
2016-09-28T05:19:21.236Z,93.22
2016-09-28T05:20:21.200Z,93.41
2016-09-28T05:21:21.167Z,94.36
2016-09-28T05:22:21.133Z,93.88
2016-09-28T05:23:21.100Z,94.27
2016-09-28T05:24:21.062Z,94.65
2016-09-28T05:25:21.023Z,94.07
2016-09-28T05:26:20.988Z,93.88
2016-09-28T05:27:20.653Z,93.98
2016-09-28T05:28:20.922Z,94.07
2016-09-28T05:29:20.885Z,94.07
2016-09-28T05:30:20.850Z,94.17
2016-09-28T05:31:20.817Z,94.07
2016-09-28T05:32:20.779Z,94.36
2016-09-28T05:33:20.750Z,94.36
2016-09-28T05:34:20.710Z,93.6
2016-09-28T05:35:20.675Z,94.27
2016-09-28T05:36:20.639Z,94.65
2016-09-28T05:37:20.603Z,94.46
2016-09-28T05:38:20.573Z,94.36
2016-09-28T05:39:20.536Z,94.36
2016-09-28T05:40:20.502Z,94.36
2016-09-28T05:41:20.469Z,94.36
2016-09-28T05:42:20.430Z,94.46
2016-09-28T05:43:20.396Z,94.93
2016-09-28T05:44:20.359Z,94.74
2016-09-28T05:45:20.325Z,94.74
2016-09-28T05:46:20.291Z,94.56
2016-09-28T05:47:20.252Z,94.65
2016-09-28T05:48:20.218Z,94.36
2016-09-28T05:49:20.184Z,94.74
2016-09-28T05:50:19.850Z,94.89
2016-09-28T05:51:20.120Z,94.22
2016-09-28T05:52:20.080Z,94.41
2016-09-28T05:53:20.045Z,94.51
2016-09-28T05:54:20.011Z,93.93
2016-09-28T05:55:19.981Z,94.12
2016-09-28T05:56:19.948Z,94.22
2016-09-28T05:57:19.910Z,94.22
2016-09-28T05:58:19.869Z,94.31
2016-09-28T05:59:19.836Z,94.41
2016-09-28T06:00:19.804Z,93.74
2016-09-28T06:01:19.775Z,93.65
2016-09-28T06:02:19.736Z,93.65
2016-09-28T06:03:19.397Z,93.07
2016-09-28T06:04:19.360Z,93.07
2016-09-28T06:05:19.631Z,93.55
2016-09-28T06:06:19.594Z,92.97
2016-09-28T06:07:19.259Z,93.36
2016-09-28T06:08:19.529Z,93.07
2016-09-28T06:09:19.490Z,93.36
2016-09-28T06:10:19.458Z,93.17
2016-09-28T06:11:19.423Z,92.5
2016-09-28T06:12:19.388Z,92.6
2016-09-28T06:13:19.056Z,92.93
2016-09-28T06:14:19.326Z,92.74
2016-09-28T06:15:18.982Z,92.79
2016-09-28T06:16:18.950Z,92.26
2016-09-28T06:17:19.219Z,92.45
2016-09-28T06:18:19.184Z,92.26
2016-09-28T06:19:18.849Z,92.26
2016-09-28T06:20:19.115Z,92.07
2016-09-28T06:21:19.081Z,92.07
2016-09-28T06:22:18.743Z,92.26
2016-09-28T06:23:19.014Z,91.97
2016-09-28T06:24:18.671Z,92.16
2016-09-28T06:25:18.944Z,92.16
2016-09-28T06:26:18.605Z,91.59
2016-09-28T06:27:18.577Z,91.5
2016-09-28T06:28:18.843Z,91.88
2016-09-28T06:29:18.503Z,91.5
2016-09-28T06:30:18.775Z,91.5
2016-09-28T06:31:18.737Z,91.5
2016-09-28T06:32:18.702Z,91.88
2016-09-28T06:33:18.670Z,91.5
2016-09-28T06:34:18.334Z,91.5
2016-09-28T06:35:18.600Z,91.5
2016-09-28T06:36:18.567Z,91.78
2016-09-28T06:37:18.542Z,91.88
2016-09-28T06:38:18.199Z,91.78
2016-09-28T06:39:18.465Z,91.88
2016-09-28T06:40:18.433Z,91.88
2016-09-28T06:41:18.399Z,91.88
2016-09-28T06:42:18.368Z,91.74
2016-09-28T06:43:18.331Z,91.83
2016-09-28T06:44:18.294Z,91.45
2016-09-28T06:45:17.958Z,91.45
2016-09-28T06:46:18.226Z,91.54
2016-09-28T06:47:18.194Z,91.54
2016-09-28T06:48:17.868Z,91.54
2016-09-28T06:49:18.126Z,91.45
2016-09-28T06:50:18.092Z,91.64
2016-09-28T06:51:17.759Z,92.4
2016-09-28T06:52:18.025Z,92.3
2016-09-28T06:53:17.690Z,92.02
2016-09-28T06:54:17.654Z,92.3
2016-09-28T06:55:17.620Z,92.07
2016-09-28T06:56:17.589Z,92.02
2016-09-28T06:57:17.854Z,92.07
2016-09-28T06:58:17.517Z,92.07
2016-09-28T06:59:17.489Z,92.35
2016-09-28T07:00:17.760Z,92.25
2016-09-28T07:01:17.721Z,92.16
2016-09-28T07:02:17.687Z,91.78
2016-09-28T07:03:17.352Z,91.59
2016-09-28T07:04:17.322Z,91.49
2016-09-28T07:05:17.587Z,91.2
2016-09-28T07:06:17.555Z,91.3
2016-09-28T07:07:17.224Z,91.06
2016-09-28T07:08:17.488Z,91.16
2016-09-28T07:09:17.454Z,90.96
2016-09-28T07:10:17.419Z,90.77
2016-09-28T07:11:17.091Z,91.16
2016-09-28T07:12:17.352Z,91.06
2016-09-28T07:13:17.319Z,90.67
2016-09-28T07:14:17.289Z,90.48
2016-09-28T07:15:17.255Z,90.67
2016-09-28T07:16:17.221Z,89.91
2016-09-28T07:17:16.888Z,90.01
2016-09-28T07:18:17.155Z,89.91
2016-09-28T07:19:16.817Z,89.53
2016-09-28T07:20:17.088Z,89.48
2016-09-28T07:21:17.054Z,89.67
2016-09-28T07:22:17.023Z,89.29
2016-09-28T07:23:16.990Z,89.29
2016-09-28T07:24:16.652Z,89.29
2016-09-28T07:25:16.623Z,88.9
2016-09-28T07:26:16.889Z,89.09
2016-09-28T07:27:16.555Z,89.09
2016-09-28T07:28:16.826Z,88.43
2016-09-28T07:29:16.795Z,88.13
2016-09-28T07:30:16.456Z,87.85
2016-09-28T07:31:16.425Z,87.76
2016-09-28T07:32:16.694Z,87.56
2016-09-28T07:33:16.661Z,87.7
2016-09-28T07:34:16.328Z,87.03
2016-09-28T07:35:16.597Z,86.94
2016-09-28T07:36:16.582Z,86.84
2016-09-28T07:37:16.229Z,86.94
2016-09-28T07:38:16.197Z,86.55
2016-09-28T07:39:16.467Z,86.74
2016-09-28T07:40:16.133Z,86.65
2016-09-28T07:41:16.407Z,86.46
2016-09-28T07:42:16.370Z,86.36
2016-09-28T07:43:16.336Z,86.08
2016-09-28T07:44:16.005Z,86.17
2016-09-28T07:45:16.273Z,85.69
2016-09-28T07:46:16.243Z,85.5
2016-09-28T07:47:16.208Z,85.31
2016-09-28T07:48:16.175Z,85.41
2016-09-28T07:49:15.841Z,85.41
2016-09-28T07:50:16.113Z,84.78
2016-09-28T07:51:16.075Z,85.06
2016-09-28T07:52:16.064Z,84.3
2016-09-28T07:53:16.023Z,85.16
2016-09-28T07:54:15.677Z,84.78
2016-09-28T07:55:15.649Z,84.39
2016-09-28T07:56:15.916Z,84.68
2016-09-28T07:57:15.888Z,84.88
2016-09-28T07:58:15.852Z,84.3
2016-09-28T07:59:15.821Z,84.11
2016-09-28T08:00:15.793Z,84.49
2016-09-28T08:01:15.451Z,83.82
2016-09-28T08:02:15.727Z,84.39
2016-09-28T08:03:15.391Z,84.2
2016-09-28T08:04:15.660Z,84.39
2016-09-28T08:05:15.629Z,84.39
2016-09-28T08:06:15.598Z,84.11
2016-09-28T08:07:15.566Z,84.78
2016-09-28T08:08:15.531Z,84.78
2016-09-28T08:09:15.201Z,84.68
2016-09-28T08:10:15.466Z,84.88
2016-09-28T08:11:15.436Z,84.88
2016-09-28T08:12:15.407Z,84.88
2016-09-28T08:13:15.071Z,84.49
2016-09-28T08:14:15.338Z,84.2
2016-09-28T08:15:15.309Z,83.72
2016-09-28T08:16:15.278Z,84.11
2016-09-28T08:17:15.242Z,84.01
2016-09-28T08:18:15.217Z,83.34
2016-09-28T08:19:15.184Z,82.9
2016-09-28T08:20:15.150Z,83.48
2016-09-28T08:21:15.116Z,83.09
2016-09-28T08:22:14.784Z,82.52
2016-09-28T08:23:14.753Z,82.42
2016-09-28T08:24:15.023Z,82.42
2016-09-28T08:25:14.990Z,81.85
2016-09-28T08:26:14.956Z,82.04
2016-09-28T08:27:14.928Z,81.56
2016-09-28T08:28:14.892Z,81.46
2016-09-28T08:29:14.559Z,81.66
2016-09-28T08:30:14.832Z,81.75
2016-09-28T08:31:14.802Z,81.9
2016-09-28T08:32:14.767Z,82.09
2016-09-28T08:33:14.734Z,82.38
2016-09-28T08:34:14.428Z,82.38
2016-09-28T08:35:14.370Z,82.38
2016-09-28T08:36:14.641Z,82.29
2016-09-28T08:37:14.605Z,81.9
2016-09-28T08:38:14.583Z,81.71
2016-09-28T08:39:14.244Z,81.66
2016-09-28T08:40:14.516Z,81.08
2016-09-28T08:41:14.480Z,80.7
2016-09-28T08:42:14.150Z,80.64
2016-09-28T08:43:14.419Z,80.74
2016-09-28T08:44:14.385Z,80.55
2016-09-28T08:45:14.052Z,79.63
2016-09-28T08:46:14.023Z,78.38
2016-09-28T08:47:13.988Z,77.75
2016-09-28T08:48:13.961Z,76.59
2016-09-28T08:49:14.231Z,76.15
2016-09-28T08:50:13.894Z,75.2
2016-09-28T08:51:14.168Z,74.75
2016-09-28T08:52:13.833Z,73.88
2016-09-28T08:53:14.104Z,72.64
2016-09-28T08:54:14.075Z,70.3
2016-09-28T08:55:13.748Z,68.9
2016-09-28T08:56:13.712Z,68.16
2016-09-28T08:57:13.986Z,67.23
2016-09-28T08:58:13.957Z,66.65
2016-09-28T08:59:13.625Z,66.36
2016-09-28T09:00:13.596Z,65.78
2016-09-28T09:01:13.865Z,65.5
2016-09-28T09:02:13.843Z,65.3
2016-09-28T09:03:13.805Z,63.98
2016-09-28T09:04:13.779Z,62.54
2016-09-28T09:05:13.749Z,62.18
2016-09-28T09:06:13.717Z,61.99
2016-09-28T09:07:13.688Z,62.09
2016-09-28T09:08:13.662Z,62.09
2016-09-28T09:09:13.331Z,61.71
2016-09-28T09:10:13.604Z,60.55
2016-09-28T09:11:13.575Z,60.45
2016-09-28T09:12:13.249Z,59.87
2016-09-28T09:13:13.518Z,58.39
2016-09-28T09:14:13.490Z,56.1
2016-09-28T09:15:13.167Z,53.45
2016-09-28T09:16:13.136Z,50.52
2016-09-28T09:17:13.407Z,47.62
2016-09-28T09:18:13.079Z,43.63
2016-09-28T09:19:13.058Z,40.97
2016-09-28T09:20:13.329Z,37.63
2016-09-28T09:21:13.304Z,34.67
2016-09-28T09:22:13.282Z,32.78
2016-09-28T09:23:13.256Z,30.94
2016-09-28T09:24:12.932Z,29.88
2016-09-28T09:25:13.209Z,29.13
2016-09-28T09:26:13.180Z,28.75
2016-09-28T09:27:13.159Z,29.52
2016-09-28T09:28:12.837Z,30.77
2016-09-28T09:29:13.110Z,30.91
2016-09-28T09:30:13.087Z,30.13
2016-09-28T09:31:13.067Z,29.55
2016-09-28T09:32:13.044Z,29.55
2016-09-28T09:33:13.019Z,28.88
2016-09-28T09:34:13.001Z,29.36
2016-09-28T09:35:12.976Z,29.94
2016-09-28T09:36:12.650Z,30.61
2016-09-28T09:37:12.628Z,30.58
2016-09-28T09:38:12.909Z,29.8
2016-09-28T09:39:12.888Z,29.32
2016-09-28T09:40:12.865Z,29.14
2016-09-28T09:41:12.541Z,29.16
2016-09-28T09:42:12.822Z,28.94
2016-09-28T09:43:12.797Z,27.59
2016-09-28T09:44:12.775Z,27.31
2016-09-28T09:45:12.753Z,28
2016-09-28T09:46:12.736Z,28.26
2016-09-28T09:47:12.711Z,28.82
2016-09-28T09:48:12.387Z,29.39
2016-09-28T09:49:12.666Z,29.49
2016-09-28T09:50:12.342Z,29.79
2016-09-28T09:51:12.318Z,29.57
2016-09-28T09:52:12.600Z,28.91
2016-09-28T09:53:12.276Z,28.43
2016-09-28T09:54:12.558Z,27.28
2016-09-28T09:55:12.231Z,26.33
2016-09-28T09:56:12.212Z,25.46
2016-09-28T09:57:12.189Z,24.69
2016-09-28T09:58:12.469Z,24.7
2016-09-28T09:59:12.447Z,24.7
2016-09-28T10:00:12.440Z,23.74
2016-09-28T10:01:12.405Z,22.67
2016-09-28T10:02:12.080Z,22.67
2016-09-28T10:03:12.363Z,23.25
2016-09-28T10:04:12.037Z,22.95
2016-09-28T10:05:12.319Z,23.14
2016-09-28T10:06:12.000Z,23.25
2016-09-28T10:07:12.279Z,23.46
2016-09-28T10:08:11.955Z,22.98
2016-09-28T10:09:12.241Z,22.01
2016-09-28T10:10:11.916Z,21.53
2016-09-28T10:11:12.196Z,22.01
2016-09-28T10:12:12.177Z,21.83
2016-09-28T10:13:11.857Z,21.34
2016-09-28T10:14:12.138Z,21.15
2016-09-28T10:15:11.817Z,20.67
2016-09-28T10:16:11.801Z,20.19
2016-09-28T10:17:12.079Z,19.81
2016-09-28T10:18:11.759Z,19.13
2016-09-28T10:19:12.036Z,19.23
2016-09-28T10:20:12.018Z,18.94
2016-09-28T10:21:11.999Z,18.46
2016-09-28T10:22:11.675Z,18.26
2016-09-28T10:23:11.667Z,18.35
2016-09-28T10:24:11.938Z,18.35
2016-09-28T10:25:11.921Z,18.35
2016-09-28T10:26:11.599Z,17.76
2016-09-28T10:27:11.582Z,17.38
2016-09-28T10:28:11.864Z,17.49
2016-09-28T10:29:11.541Z,17.49
2016-09-28T10:30:11.523Z,17.88
2016-09-28T10:31:11.808Z,18.65
2016-09-28T10:32:11.794Z,18.15
2016-09-28T10:33:11.765Z,18.65
2016-09-28T10:34:11.750Z,19.13
2016-09-28T10:35:11.727Z,18.63
2016-09-28T10:36:11.708Z,19.11
2016-09-28T10:37:11.689Z,19.01
2016-09-28T10:38:11.674Z,18.91
2016-09-28T10:39:11.650Z,19.4
2016-09-28T10:40:11.632Z,19.21
2016-09-28T10:41:11.308Z,19.11
2016-09-28T10:42:11.591Z,18.82
2016-09-28T10:43:11.571Z,18.92
2016-09-28T10:44:11.552Z,18.92
2016-09-28T10:45:11.532Z,18.92
2016-09-28T10:46:11.513Z,18.92
2016-09-28T10:47:11.493Z,19.31
2016-09-28T10:48:11.469Z,19.6
2016-09-28T10:49:11.453Z,19.59
2016-09-28T10:50:11.131Z,19.69
2016-09-28T10:51:11.414Z,19.79
2016-09-28T10:52:11.400Z,19.58
2016-09-28T10:53:11.375Z,20.17
2016-09-28T10:54:11.354Z,20.26
2016-09-28T10:55:11.030Z,20.46
2016-09-28T10:56:11.312Z,21.05
2016-09-28T10:57:11.296Z,20.94
2016-09-28T10:58:11.279Z,20.84
2016-09-28T10:59:11.254Z,21.14
2016-09-28T11:00:10.934Z,21.22
2016-09-28T11:01:10.913Z,21.33
2016-09-28T11:02:11.195Z,21.52
2016-09-28T11:03:11.177Z,21.52
2016-09-28T11:04:10.854Z,21.33
2016-09-28T11:05:11.134Z,21.22
2016-09-28T11:06:10.813Z,21.9
2016-09-28T11:07:11.095Z,22.39
2016-09-28T11:08:11.076Z,22.38
2016-09-28T11:09:11.051Z,22.77
2016-09-28T11:10:11.038Z,23.06
2016-09-28T11:11:11.014Z,23.06
2016-09-28T11:12:10.689Z,23.63
2016-09-28T11:13:10.971Z,24.31
2016-09-28T11:14:10.648Z,23.82
2016-09-28T11:15:10.627Z,24.79
2016-09-28T11:16:10.909Z,25.27
2016-09-28T11:17:10.889Z,25.26
2016-09-28T11:18:10.871Z,25.54
2016-09-28T11:19:10.852Z,26.22
2016-09-28T11:20:10.821Z,26.31
2016-09-28T11:21:10.497Z,27.09
2016-09-28T11:22:10.477Z,27.27
2016-09-28T11:23:10.757Z,28.63
2016-09-28T11:24:10.744Z,28.71
2016-09-28T11:25:10.714Z,29.28
2016-09-28T11:26:10.689Z,29.96
2016-09-28T11:27:10.363Z,30.15
2016-09-28T11:28:10.642Z,30.73
2016-09-28T11:29:10.620Z,30.91
2016-09-28T11:30:10.605Z,31.38
2016-09-28T11:31:10.575Z,31.77
2016-09-28T11:32:10.250Z,32.34
2016-09-28T11:33:10.229Z,32.62
2016-09-28T11:34:10.506Z,33.29
2016-09-28T11:35:10.481Z,34.06
2016-09-28T11:36:10.461Z,34.24
2016-09-28T11:37:10.435Z,35.1
2016-09-28T11:38:10.428Z,35.1
2016-09-28T11:39:10.387Z,35.86
2016-09-28T11:40:10.365Z,36.54
2016-09-28T11:41:10.039Z,36.91
2016-09-28T11:42:10.313Z,37.39
2016-09-28T11:43:10.295Z,38.15
2016-09-28T11:44:09.963Z,38.34
2016-09-28T11:45:10.240Z,38.62
2016-09-28T11:46:10.216Z,38.32
2016-09-28T11:47:10.190Z,39.28
2016-09-28T11:48:10.169Z,39.37
2016-09-28T11:49:10.139Z,39.74
2016-09-28T11:50:09.811Z,40.42
2016-09-28T11:51:10.091Z,40.71
2016-09-28T11:52:10.067Z,41.3
2016-09-28T11:53:10.049Z,41.78
2016-09-28T11:54:10.019Z,42.24
2016-09-28T11:55:09.993Z,42.24
2016-09-28T11:56:09.962Z,43.12
2016-09-28T11:57:09.936Z,43.19
2016-09-28T11:58:09.908Z,43
2016-09-28T11:59:09.883Z,43.38
2016-09-28T12:00:09.554Z,44.13
2016-09-28T12:01:09.831Z,44.74
2016-09-28T12:02:09.803Z,44.81
2016-09-28T12:03:09.777Z,44.53
2016-09-28T12:04:09.748Z,45.4
2016-09-28T12:05:09.726Z,45.57
2016-09-28T12:06:09.697Z,45.66
2016-09-28T12:07:09.670Z,45.47
2016-09-28T12:08:09.345Z,46.25
2016-09-28T12:09:09.314Z,46.53
2016-09-28T12:10:09.590Z,46.22
2016-09-28T12:11:09.568Z,46.51
2016-09-28T12:12:09.539Z,46.9
2016-09-28T12:13:09.529Z,47.48
2016-09-28T12:14:09.489Z,47.19
2016-09-28T12:15:09.459Z,47.48
2016-09-28T12:16:09.428Z,47.48
2016-09-28T12:17:09.404Z,46.9
2016-09-28T12:18:09.375Z,47.48
2016-09-28T12:19:09.349Z,47.77
2016-09-28T12:20:09.022Z,48.13
2016-09-28T12:21:09.293Z,48.13
2016-09-28T12:22:09.262Z,48.23
2016-09-28T12:23:09.244Z,48.61
2016-09-28T12:24:09.216Z,48.71
2016-09-28T12:25:09.190Z,48.81
2016-09-28T12:26:09.159Z,48.81
2016-09-28T12:27:09.127Z,48.9
2016-09-28T12:28:09.103Z,49.1
2016-09-28T12:29:09.076Z,49.19
2016-09-28T12:30:09.047Z,48.83
2016-09-28T12:31:08.717Z,48.71
2016-09-28T12:32:08.997Z,48.61
2016-09-28T12:33:08.660Z,48.61
2016-09-28T12:34:08.936Z,48.71
2016-09-28T12:35:08.607Z,48.71
2016-09-28T12:36:08.882Z,49
2016-09-28T12:37:08.553Z,48.9
2016-09-28T12:38:08.828Z,48.81
2016-09-28T12:39:08.815Z,49.29
2016-09-28T12:40:08.772Z,49
2016-09-28T12:41:08.749Z,49
2016-09-28T12:42:08.720Z,48.9
2016-09-28T12:43:08.691Z,48.81
2016-09-28T12:44:08.360Z,48.9
2016-09-28T12:45:08.636Z,49.07
2016-09-28T12:46:08.353Z,48.97
2016-09-28T12:47:08.278Z,49.27
2016-09-28T12:48:08.556Z,49.07
2016-09-28T12:49:08.523Z,48.97
2016-09-28T12:50:08.497Z,49.37
2016-09-28T12:51:08.470Z,49.65
2016-09-28T12:52:08.138Z,49.17
2016-09-28T12:53:08.425Z,50.13
2016-09-28T12:54:08.386Z,50.23
2016-09-28T12:55:08.055Z,50.52